Time;durP1;ratioP1;P1;durP2;ratioP2;P2;SDS_P1;SDS_P2;PMS_P1;PMS_P2;Temp;Humidity;BMP_temperature;BMP_pressure;BME280_temperature;BME280_humidity;BME280_pressure;Samples;Min_cycle;Max_cycle;Signal;HPM_P1;HPM_P2
2023/04/12 00:00:56;;;;;;;8.23;2.17;;;;;;;;;;5069557;28;20021;-80
2023/04/12 00:03:23;;;;;;;15.97;3.30;;;;;;;;;;5069994;28;20056;-80
2023/04/12 00:05:53;;;;;;;9.17;2.63;;;;;;;;;;5069534;28;20105;-79
2023/04/12 00:08:23;;;;;;;9.30;2.10;;;;;;;;;;5072585;28;20025;-80
2023/04/12 00:10:49;;;;;;;7.73;2.33;;;;;;;;;;5069401;28;20041;-79
2023/04/12 00:13:16;;;;;;;10.17;3.70;;;;;;;;;;5067347;28;20025;-80
2023/04/12 00:15:44;;;;;;;9.77;2.07;;;;;;;;;;5070932;28;20085;-79
2023/04/12 00:18:10;;;;;;;12.07;2.40;;;;;;;;;;5067857;28;20013;-80
2023/04/12 00:20:38;;;;;;;8.10;1.80;;;;;;;;;;5067568;28;20300;-80
2023/04/12 00:23:05;;;;;;;11.20;3.07;;;;;;;;;;5069463;28;20084;-80
2023/04/12 00:25:31;;;;;;;11.13;2.87;;;;;;;;;;5067948;28;20024;-79
2023/04/12 00:27:57;;;;;;;9.63;2.30;;;;;;;;;;5070199;28;20104;-79
2023/04/12 00:30:23;;;;;;;9.17;2.40;;;;;;;;;;5067621;28;20115;-80
2023/04/12 00:32:49;;;;;;;6.57;1.73;;;;;;;;;;5071867;28;20402;-80
2023/04/12 00:35:20;;;;;;;8.73;1.80;;;;;;;;;;5070350;28;20013;-80
2023/04/12 00:37:46;;;;;;;6.63;1.83;;;;;;;;;;5072033;28;20008;-80
2023/04/12 00:40:12;;;;;;;9.13;2.27;;;;;;;;;;5068679;28;20033;-80
2023/04/12 00:42:38;;;;;;;8.13;2.07;;;;;;;;;;5068037;28;20081;-79
2023/04/12 00:45:05;;;;;;;4.93;1.33;;;;;;;;;;5087214;28;20034;-79
2023/04/12 00:47:34;;;;;;;6.10;1.70;;;;;;;;;;5069797;28;20017;-79
2023/04/12 00:50:00;;;;;;;10.73;1.50;;;;;;;;;;5067220;28;20048;-80
2023/04/12 00:52:33;;;;;;;6.73;1.60;;;;;;;;;;5068632;28;20021;-80
2023/04/12 00:55:00;;;;;;;5.55;1.60;;;;;;;;;;5069102;28;20027;-80
2023/04/12 00:57:29;;;;;;;4.33;1.60;;;;;;;;;;5070358;28;20066;-80
2023/04/12 00:59:55;;;;;;;7.73;1.40;;;;;;;;;;5073282;28;20027;-80
2023/04/12 01:02:25;;;;;;;8.50;1.80;;;;;;;;;;5072007;28;20035;-81
2023/04/12 01:04:52;;;;;;;6.33;1.60;;;;;;;;;;5069530;28;20013;-79
2023/04/12 01:07:25;;;;;;;6.00;1.97;;;;;;;;;;5069318;28;20036;-80
2023/04/12 01:10:11;;;;;;;5.17;1.83;;;;;;;;;;5080841;28;20059;-79
2023/04/12 01:12:43;;;;;;;4.63;1.50;;;;;;;;;;5048210;28;20038;-80
2023/04/12 01:15:11;;;;;;;7.27;1.57;;;;;;;;;;5068068;28;20021;-79
2023/04/12 01:18:04;;;;;;;5.70;1.27;;;;;;;;;;5079171;28;20107;-80
2023/04/12 01:20:30;;;;;;;;;;;;;;;;;;5075066;28;20037;-80
2023/04/12 01:23:05;;;;;;;5.67;1.97;;;;;;;;;;5071056;28;19901;-79
2023/04/12 01:25:42;;;;;;;5.33;1.30;;;;;;;;;;5069084;28;20045;-79
2023/04/12 01:28:11;;;;;;;5.67;1.93;;;;;;;;;;5081394;28;20038;-80
2023/04/12 01:30:38;;;;;;;4.47;1.60;;;;;;;;;;5071123;28;20040;-80
2023/04/12 01:33:05;;;;;;;4.80;1.70;;;;;;;;;;5065338;28;20053;-80
2023/04/12 01:35:32;;;;;;;8.40;1.90;;;;;;;;;;5067872;28;20040;-80
2023/04/12 01:37:58;;;;;;;5.90;1.50;;;;;;;;;;5065364;28;20013;-80
2023/04/12 01:40:31;;;;;;;11.67;2.03;;;;;;;;;;5066731;28;20036;-80
2023/04/12 01:42:57;;;;;;;;;;;;;;;;;;5070735;28;20055;-80
2023/04/12 01:45:23;;;;;;;4.23;1.43;;;;;;;;;;5066593;28;19904;-80
2023/04/12 01:47:49;;;;;;;7.30;2.13;;;;;;;;;;5078463;28;20110;-80
2023/04/12 01:50:19;;;;;;;3.47;1.37;;;;;;;;;;5086215;28;20109;-80
2023/04/12 01:52:49;;;;;;;5.23;1.30;;;;;;;;;;5067703;28;20055;-80
2023/04/12 01:55:20;;;;;;;8.60;1.83;;;;;;;;;;5073045;28;20056;-80
2023/04/12 01:57:55;;;;;;;6.77;1.90;;;;;;;;;;5070009;28;20029;-80
2023/04/12 02:00:24;;;;;;;4.50;1.10;;;;;;;;;;5067949;28;20031;-80
2023/04/12 02:02:58;;;;;;;5.03;1.40;;;;;;;;;;5084823;28;20013;-81
2023/04/12 02:05:25;;;;;;;9.87;1.47;;;;;;;;;;5066709;28;20013;-81
2023/04/12 02:07:51;;;;;;;5.90;1.03;;;;;;;;;;5083629;28;20013;-81
2023/04/12 02:10:27;;;;;;;5.17;1.20;;;;;;;;;;5066999;28;20047;-81
2023/04/12 02:12:55;;;;;;;4.43;1.50;;;;;;;;;;5067967;28;20021;-80
2023/04/12 02:15:21;;;;;;;3.97;1.50;;;;;;;;;;5066957;28;20123;-81
2023/04/12 02:17:47;;;;;;;6.03;1.63;;;;;;;;;;5071095;28;20045;-80
2023/04/12 02:20:13;;;;;;;2.60;1.00;;;;;;;;;;5067735;28;20040;-79
2023/04/12 02:22:39;;;;;;;5.87;1.40;;;;;;;;;;5068304;28;20060;-79
2023/04/12 02:25:06;;;;;;;4.10;1.13;;;;;;;;;;5068410;28;20031;-79
2023/04/12 02:27:37;;;;;;;8.53;1.87;;;;;;;;;;5065294;28;20032;-79
2023/04/12 02:30:04;;;;;;;5.60;1.70;;;;;;;;;;5067247;28;20025;-80
2023/04/12 02:32:42;;;;;;;5.50;1.53;;;;;;;;;;5084971;28;20033;-80
2023/04/12 02:35:08;;;;;;;3.60;1.30;;;;;;;;;;5066168;28;20025;-79
2023/04/12 02:37:37;;;;;;;3.60;1.47;;;;;;;;;;5067069;28;20029;-79
2023/04/12 02:40:08;;;;;;;2.70;1.40;;;;;;;;;;5066200;28;20029;-79
2023/04/12 02:42:37;;;;;;;6.70;1.27;;;;;;;;;;5066769;28;20081;-78
2023/04/12 02:45:04;;;;;;;5.37;1.57;;;;;;;;;;5065332;28;20024;-79
2023/04/12 02:47:30;;;;;;;3.93;1.03;;;;;;;;;;5065716;28;20062;-80
2023/04/12 02:49:56;;;;;;;4.07;1.10;;;;;;;;;;5064542;28;20041;-79
2023/04/12 02:52:22;;;;;;;4.30;1.03;;;;;;;;;;5066055;28;20044;-80
2023/04/12 02:54:54;;;;;;;5.83;1.60;;;;;;;;;;5082253;28;20061;-78
2023/04/12 02:57:20;;;;;;;3.75;1.30;;;;;;;;;;5069293;28;20013;-78
2023/04/12 02:59:47;;;;;;;3.07;1.40;;;;;;;;;;5068719;28;20023;-79
2023/04/12 03:02:14;;;;;;;3.13;1.03;;;;;;;;;;5068915;28;20036;-78
2023/04/12 03:04:41;;;;;;;2.77;1.17;;;;;;;;;;5064888;28;20253;-80
2023/04/12 03:07:07;;;;;;;3.13;1.10;;;;;;;;;;5077528;28;20036;-80
2023/04/12 03:09:33;;;;;;;6.60;1.30;;;;;;;;;;5067577;28;20028;-81
2023/04/12 03:11:59;;;;;;;3.67;1.30;;;;;;;;;;5064720;28;20024;-80
2023/04/12 03:14:25;;;;;;;7.80;1.37;;;;;;;;;;5069610;28;20025;-80
2023/04/12 03:16:52;;;;;;;4.37;1.47;;;;;;;;;;5072378;28;20043;-80
2023/04/12 03:19:18;;;;;;;9.17;2.13;;;;;;;;;;5071791;28;20306;-78
2023/04/12 03:21:44;;;;;;;3.10;1.67;;;;;;;;;;5068655;28;20044;-79
2023/04/12 03:24:10;;;;;;;5.33;1.90;;;;;;;;;;5070576;28;20013;-79
2023/04/12 03:26:36;;;;;;;7.13;1.83;;;;;;;;;;5077614;28;20021;-80
2023/04/12 03:29:09;;;;;;;8.90;1.97;;;;;;;;;;5083581;28;20032;-80
2023/04/12 03:31:36;;;;;;;7.47;1.70;;;;;;;;;;5087074;28;20098;-80
2023/04/12 03:34:02;;;;;;;7.47;2.20;;;;;;;;;;5070414;28;20029;-79
2023/04/12 03:36:29;;;;;;;4.90;1.50;;;;;;;;;;5071969;28;20029;-81
2023/04/12 03:38:55;;;;;;;5.60;1.97;;;;;;;;;;5071771;28;20033;-80
2023/04/12 03:41:27;;;;;;;5.07;1.50;;;;;;;;;;5087298;28;20029;-79
2023/04/12 03:43:55;;;;;;;8.90;2.28;;;;;;;;;;5069721;28;20093;-80
2023/04/12 03:46:21;;;;;;;10.20;2.40;;;;;;;;;;5071509;28;20514;-78
2023/04/12 03:48:49;;;;;;;6.57;2.20;;;;;;;;;;5068778;28;20079;-80
2023/04/12 03:51:20;;;;;;;4.10;1.40;;;;;;;;;;5066889;28;20051;-81
2023/04/12 03:53:47;;;;;;;14.00;2.87;;;;;;;;;;5067819;28;20045;-81
2023/04/12 03:56:13;;;;;;;4.20;1.70;;;;;;;;;;5068726;28;20036;-79
2023/04/12 03:58:39;;;;;;;8.97;1.77;;;;;;;;;;5079731;28;20051;-79
2023/04/12 04:01:05;;;;;;;9.33;2.37;;;;;;;;;;5077846;28;20499;-81
2023/04/12 04:03:34;;;;;;;8.43;2.10;;;;;;;;;;5084321;28;20100;-80
2023/04/12 04:06:00;;;;;;;8.33;2.37;;;;;;;;;;5066299;28;20020;-80
2023/04/12 04:08:27;;;;;;;8.00;1.93;;;;;;;;;;5077607;28;20572;-80
2023/04/12 04:10:53;;;;;;;4.47;2.00;;;;;;;;;;5069379;28;20036;-79
2023/04/12 04:13:20;;;;;;;8.10;2.13;;;;;;;;;;5070721;28;20050;-79
2023/04/12 04:15:46;;;;;;;4.00;1.93;;;;;;;;;;5067658;28;20043;-80
2023/04/12 04:18:14;;;;;;;6.47;2.27;;;;;;;;;;5069463;28;20028;-80
2023/04/12 04:20:40;;;;;;;8.57;2.20;;;;;;;;;;5072706;28;20040;-80
2023/04/12 04:23:09;;;;;;;8.90;2.37;;;;;;;;;;5064944;28;20089;-79
2023/04/12 04:25:38;;;;;;;8.77;2.50;;;;;;;;;;5067405;28;20024;-80
2023/04/12 04:28:06;;;;;;;7.77;2.13;;;;;;;;;;5069046;28;20052;-79
2023/04/12 04:30:37;;;;;;;5.90;2.70;;;;;;;;;;5085650;28;20044;-80
2023/04/12 04:33:05;;;;;;;4.80;2.17;;;;;;;;;;5069365;28;20056;-80
2023/04/12 04:35:34;;;;;;;7.03;2.53;;;;;;;;;;5069887;28;20033;-80
2023/04/12 04:38:00;;;;;;;8.20;2.27;;;;;;;;;;5078546;28;20036;-82
2023/04/12 04:40:28;;;;;;;5.17;2.40;;;;;;;;;;5073898;28;20017;-80
2023/04/12 04:42:57;;;;;;;8.77;2.87;;;;;;;;;;5066088;28;21528;-81
2023/04/12 04:45:32;;;;;;;9.23;2.77;;;;;;;;;;5084817;28;20033;-79
2023/04/12 04:47:58;;;;;;;9.77;2.60;;;;;;;;;;5064528;28;20041;-79
2023/04/12 04:50:26;;;;;;;6.30;2.57;;;;;;;;;;5077529;28;21112;-81
2023/04/12 04:52:53;;;;;;;8.20;3.00;;;;;;;;;;5067668;28;20034;-80
2023/04/12 04:55:23;;;;;;;6.90;2.77;;;;;;;;;;5069080;28;20055;-80
2023/04/12 04:57:49;;;;;;;4.47;2.73;;;;;;;;;;5067060;28;20021;-80
2023/04/12 05:00:16;;;;;;;6.47;2.90;;;;;;;;;;5069026;28;20033;-81
2023/04/12 05:02:44;;;;;;;6.97;2.20;;;;;;;;;;5069843;28;20021;-79
2023/04/12 05:05:11;;;;;;;8.07;3.10;;;;;;;;;;5083148;28;20097;-79
2023/04/12 05:07:37;;;;;;;5.93;2.03;;;;;;;;;;5067319;28;20079;-81
2023/04/12 05:10:04;;;;;;;8.23;2.80;;;;;;;;;;5068639;28;20024;-78
2023/04/12 05:12:30;;;;;;;8.27;2.90;;;;;;;;;;5069043;28;20017;-82
2023/04/12 05:14:56;;;;;;;4.03;2.50;;;;;;;;;;5069536;28;20040;-79
2023/04/12 05:17:22;;;;;;;8.70;3.17;;;;;;;;;;5069547;28;20028;-80
2023/04/12 05:19:50;;;;;;;7.60;2.77;;;;;;;;;;5083138;28;20097;-80
2023/04/12 05:22:20;;;;;;;6.13;2.83;;;;;;;;;;5065973;28;20017;-79
2023/04/12 05:24:52;;;;;;;7.03;3.17;;;;;;;;;;5070706;28;20086;-79
2023/04/12 05:27:20;;;;;;;8.90;3.20;;;;;;;;;;5067717;28;20048;-80
2023/04/12 05:29:47;;;;;;;8.63;2.90;;;;;;;;;;5069325;28;20045;-80
2023/04/12 05:32:13;;;;;;;4.90;2.57;;;;;;;;;;5071624;28;20048;-79
2023/04/12 05:34:42;;;;;;;4.93;2.70;;;;;;;;;;5077978;28;20036;-79
2023/04/12 05:37:09;;;;;;;6.93;3.87;;;;;;;;;;5082298;28;20058;-79
2023/04/12 05:39:35;;;;;;;5.27;3.23;;;;;;;;;;5069028;28;20018;-80
2023/04/12 05:42:04;;;;;;;25.57;3.50;;;;;;;;;;5070005;28;20031;-81
2023/04/12 05:44:30;;;;;;;7.30;2.80;;;;;;;;;;5066849;28;20024;-81
2023/04/12 05:46:56;;;;;;;7.73;3.40;;;;;;;;;;5065717;28;20040;-79
2023/04/12 05:49:28;;;;;;;6.50;2.93;;;;;;;;;;5069248;28;20049;-81
2023/04/12 05:51:56;;;;;;;4.30;2.83;;;;;;;;;;5072392;28;20093;-80
2023/04/12 05:54:24;;;;;;;3.97;2.57;;;;;;;;;;5066429;28;20104;-81
2023/04/12 05:56:53;;;;;;;5.50;3.00;;;;;;;;;;5067180;28;20039;-79
2023/04/12 05:59:21;;;;;;;7.60;2.87;;;;;;;;;;5070368;28;20028;-82
2023/04/12 06:01:50;;;;;;;4.00;2.70;;;;;;;;;;5065188;28;20021;-79
2023/04/12 06:04:16;;;;;;;6.30;2.97;;;;;;;;;;5077628;28;20082;-80
2023/04/12 06:06:43;;;;;;;5.57;2.77;;;;;;;;;;5067621;28;20073;-80
2023/04/12 06:09:09;;;;;;;7.53;3.20;;;;;;;;;;5066885;28;20047;-79
2023/04/12 06:11:37;;;;;;;4.50;2.40;;;;;;;;;;5065124;28;20033;-81
2023/04/12 06:16:45;;;;;;;5.90;3.03;;;;;;;;;;5917915;22;20113;-80
2023/04/12 06:19:14;;;;;;;5.25;2.35;;;;;;;;;;5071303;28;20035;-80
2023/04/12 06:21:40;;;;;;;4.40;2.60;;;;;;;;;;5275545;22;20052;-79
2023/04/12 06:24:06;;;;;;;7.07;3.07;;;;;;;;;;5067678;28;20009;-81
2023/04/12 06:26:35;;;;;;;8.00;3.00;;;;;;;;;;5065950;28;20029;-79
2023/04/12 06:29:04;;;;;;;5.27;2.90;;;;;;;;;;5068735;28;20029;-81
2023/04/12 06:31:30;;;;;;;4.90;2.77;;;;;;;;;;5070919;28;20037;-80
2023/04/12 06:33:56;;;;;;;5.57;2.30;;;;;;;;;;5064330;28;20041;-81
2023/04/12 06:36:22;;;;;;;4.90;2.37;;;;;;;;;;5066272;28;20028;-79
2023/04/12 06:38:50;;;;;;;6.73;2.93;;;;;;;;;;5067078;28;20045;-81
2023/04/12 06:41:16;;;;;;;6.70;2.97;;;;;;;;;;5066264;28;20029;-80
2023/04/12 06:43:42;;;;;;;7.87;2.87;;;;;;;;;;5084185;28;20046;-81
2023/04/12 06:46:08;;;;;;;7.53;3.00;;;;;;;;;;5069791;28;20052;-79
2023/04/12 06:48:36;;;;;;;5.37;2.60;;;;;;;;;;5068639;28;20025;-81
2023/04/12 06:51:02;;;;;;;6.63;2.70;;;;;;;;;;5071570;28;20017;-81
2023/04/12 06:53:29;;;;;;;5.60;2.60;;;;;;;;;;5073381;28;20098;-80
2023/04/12 06:55:55;;;;;;;9.43;3.30;;;;;;;;;;5066474;28;20854;-81
2023/04/12 06:58:21;;;;;;;3.90;2.63;;;;;;;;;;5063698;28;20121;-81
2023/04/12 07:00:47;;;;;;;7.90;2.87;;;;;;;;;;5063037;28;20108;-80
2023/04/12 07:03:16;;;;;;;3.17;2.07;;;;;;;;;;5066256;28;20025;-81
2023/04/12 07:05:42;;;;;;;4.37;2.37;;;;;;;;;;5064648;28;20090;-81
2023/04/12 07:08:08;;;;;;;4.03;2.30;;;;;;;;;;5064603;28;20132;-81
2023/04/12 07:10:35;;;;;;;6.80;2.37;;;;;;;;;;5066498;28;20032;-81
2023/04/12 07:13:05;;;;;;;4.63;1.70;;;;;;;;;;5072819;28;20047;-80
2023/04/12 07:15:31;;;;;;;6.17;2.20;;;;;;;;;;5069198;28;20056;-81
2023/04/12 07:17:57;;;;;;;4.50;2.03;;;;;;;;;;5068375;28;20020;-80
2023/04/12 07:20:23;;;;;;;4.57;2.17;;;;;;;;;;5072611;28;20047;-80
2023/04/12 07:22:49;;;;;;;4.63;2.53;;;;;;;;;;5070964;28;20047;-80
2023/04/12 07:25:17;;;;;;;3.47;2.10;;;;;;;;;;5069925;28;20029;-80
2023/04/12 07:27:44;;;;;;;2.67;1.93;;;;;;;;;;5071914;28;20033;-80
2023/04/12 07:30:10;;;;;;;6.37;2.03;;;;;;;;;;5072661;28;20058;-83
2023/04/12 07:32:36;;;;;;;6.93;2.10;;;;;;;;;;5070926;28;20052;-81
2023/04/12 07:35:02;;;;;;;5.93;2.30;;;;;;;;;;5069839;28;20025;-80
2023/04/12 07:37:28;;;;;;;6.43;2.43;;;;;;;;;;5075149;28;20075;-81
2023/04/12 07:39:54;;;;;;;5.97;2.10;;;;;;;;;;5075380;28;20021;-81
2023/04/12 07:42:20;;;;;;;3.17;1.80;;;;;;;;;;5073815;28;20040;-80
2023/04/12 07:44:46;;;;;;;6.93;2.70;;;;;;;;;;5073597;28;20037;-81
2023/04/12 07:47:12;;;;;;;3.53;1.80;;;;;;;;;;5065808;28;20040;-81
2023/04/12 07:49:38;;;;;;;4.60;2.63;;;;;;;;;;5067057;28;20093;-81
2023/04/12 07:52:05;;;;;;;5.13;2.53;;;;;;;;;;5080318;28;20021;-80
2023/04/12 07:54:31;;;;;;;6.57;1.90;;;;;;;;;;5070365;28;20077;-81
2023/04/12 07:56:58;;;;;;;4.40;2.00;;;;;;;;;;5072887;28;20032;-81
2023/04/12 07:59:24;;;;;;;4.30;2.47;;;;;;;;;;5070307;28;20074;-81
2023/04/12 08:01:50;;;;;;;4.47;1.80;;;;;;;;;;5070832;28;20064;-81
2023/04/12 08:04:16;;;;;;;3.67;1.80;;;;;;;;;;5068957;28;20092;-81
2023/04/12 08:06:42;;;;;;;3.63;1.90;;;;;;;;;;5064918;28;20100;-81
2023/04/12 08:09:08;;;;;;;3.77;2.27;;;;;;;;;;5070242;28;20097;-80
2023/04/12 08:11:34;;;;;;;2.87;1.80;;;;;;;;;;5063413;28;20107;-81
2023/04/12 08:14:01;;;;;;;2.13;1.40;;;;;;;;;;5066768;28;20051;-81
2023/04/12 08:16:27;;;;;;;6.40;2.20;;;;;;;;;;5070975;28;20118;-81
2023/04/12 08:18:53;;;;;;;3.70;1.80;;;;;;;;;;5067858;28;20039;-80
2023/04/12 08:21:19;;;;;;;3.80;1.90;;;;;;;;;;5068584;28;20064;-80
2023/04/12 08:23:45;;;;;;;3.27;2.00;;;;;;;;;;5070949;28;20032;-80
2023/04/12 08:26:11;;;;;;;4.43;2.07;;;;;;;;;;5069062;28;20029;-81
2023/04/12 08:28:38;;;;;;;3.60;1.40;;;;;;;;;;5067475;28;20021;-80
2023/04/12 08:31:04;;;;;;;4.20;1.60;;;;;;;;;;5069468;28;20036;-81
2023/04/12 08:33:30;;;;;;;3.93;1.77;;;;;;;;;;5068039;28;20029;-79
2023/04/12 08:35:56;;;;;;;4.53;1.43;;;;;;;;;;5071246;28;20021;-81
2023/04/12 08:38:22;;;;;;;8.03;3.97;;;;;;;;;;5068299;28;20054;-80
2023/04/12 08:40:49;;;;;;;3.13;1.40;;;;;;;;;;5068901;28;20036;-80
2023/04/12 08:43:16;;;;;;;5.23;1.90;;;;;;;;;;5067914;28;20102;-81
2023/04/12 08:45:42;;;;;;;2.93;1.80;;;;;;;;;;5068854;28;20029;-81
2023/04/12 08:48:08;;;;;;;2.40;1.20;;;;;;;;;;5061724;28;20052;-80
2023/04/12 08:50:34;;;;;;;5.23;1.77;;;;;;;;;;5068784;28;20096;-80
2023/04/12 08:53:01;;;;;;;3.87;2.30;;;;;;;;;;5067636;28;20031;-81
2023/04/12 08:55:27;;;;;;;4.70;2.40;;;;;;;;;;5066013;28;20021;-81
2023/04/12 08:58:06;;;;;;;4.13;2.10;;;;;;;;;;5071755;28;20032;-81
2023/04/12 09:00:32;;;;;;;3.20;1.30;;;;;;;;;;5065267;28;20063;-80
2023/04/12 09:02:59;;;;;;;1.70;1.10;;;;;;;;;;5065575;28;20033;-80
2023/04/12 09:05:29;;;;;;;3.33;1.77;;;;;;;;;;5072383;28;20083;-80
2023/04/12 09:07:58;;;;;;;4.53;1.70;;;;;;;;;;5067168;28;20057;-80
2023/04/12 09:10:35;;;;;;;3.33;1.50;;;;;;;;;;5064538;28;20036;-81
2023/04/12 09:13:02;;;;;;;6.60;2.40;;;;;;;;;;5067000;28;20064;-79
2023/04/12 09:15:29;;;;;;;5.77;2.63;;;;;;;;;;5064294;28;20029;-77
2023/04/12 09:18:05;;;;;;;3.27;2.37;;;;;;;;;;5063224;28;20033;-80
2023/04/12 09:20:31;;;;;;;7.20;2.57;;;;;;;;;;5067672;28;20044;-80
2023/04/12 09:22:58;;;;;;;4.37;2.77;;;;;;;;;;5068592;28;20124;-80
2023/04/12 09:25:43;;;;;;;5.23;2.17;;;;;;;;;;5060019;28;20069;-80
2023/04/12 09:28:20;;;;;;;4.13;1.90;;;;;;;;;;5055294;28;20037;-79
2023/04/12 09:30:50;;;;;;;7.33;2.50;;;;;;;;;;5063031;28;20056;-80
2023/04/12 09:33:19;;;;;;;3.17;2.20;;;;;;;;;;5061300;28;20048;-80
2023/04/12 09:35:48;;;;;;;5.10;2.10;;;;;;;;;;5056633;28;20087;-79
2023/04/12 09:38:14;;;;;;;4.90;2.17;;;;;;;;;;5064050;28;20227;-80
2023/04/12 09:40:40;;;;;;;1.87;1.67;;;;;;;;;;5063999;28;20032;-80
2023/04/12 09:43:07;;;;;;;1.87;1.40;;;;;;;;;;5062336;28;20035;-80
2023/04/12 09:45:34;;;;;;;9.03;2.00;;;;;;;;;;5062204;28;20102;-80
2023/04/12 09:48:00;;;;;;;2.10;1.47;;;;;;;;;;5061838;28;20385;-79
2023/04/12 09:50:32;;;;;;;3.03;1.90;;;;;;;;;;5064672;28;20033;-80
2023/04/12 09:52:58;;;;;;;4.65;2.50;;;;;;;;;;5064425;28;20021;-80
2023/04/12 09:55:26;;;;;;;2.67;2.23;;;;;;;;;;5068141;28;20024;-80
2023/04/12 09:57:53;;;;;;;3.87;2.07;;;;;;;;;;5065866;28;20036;-80
2023/04/12 10:00:22;;;;;;;4.40;2.33;;;;;;;;;;5059930;28;20098;-80
2023/04/12 10:02:51;;;;;;;5.37;2.30;;;;;;;;;;5062846;28;20034;-80
2023/04/12 10:05:18;;;;;;;2.33;1.63;;;;;;;;;;5061405;28;20036;-80
2023/04/12 10:07:44;;;;;;;4.47;2.10;;;;;;;;;;5063695;28;20034;-80
2023/04/12 10:10:12;;;;;;;3.30;2.13;;;;;;;;;;5064134;28;20041;-80
2023/04/12 10:12:39;;;;;;;3.47;2.17;;;;;;;;;;5060401;28;20033;-80
2023/04/12 10:15:11;;;;;;;4.73;3.00;;;;;;;;;;5065401;28;20025;-80
2023/04/12 10:17:39;;;;;;;3.28;2.28;;;;;;;;;;5066712;28;20059;-80
2023/04/12 10:20:06;;;;;;;2.20;1.50;;;;;;;;;;5061084;28;20040;-80
2023/04/12 10:22:32;;;;;;;3.23;1.63;;;;;;;;;;5064668;28;20030;-79
2023/04/12 10:24:59;;;;;;;5.63;2.78;;;;;;;;;;5070935;28;20048;-80
2023/04/12 10:27:29;;;;;;;3.63;1.93;;;;;;;;;;5066012;28;20020;-80
2023/04/12 10:30:15;;;;;;;4.50;1.50;;;;;;;;;;5063083;28;20025;-81
2023/04/12 10:32:42;;;;;;;3.70;1.73;;;;;;;;;;5070652;28;20017;-80
2023/04/12 10:35:08;;;;;;;2.27;1.60;;;;;;;;;;5070585;28;20021;-80
2023/04/12 10:37:53;;;;;;;4.33;1.87;;;;;;;;;;5067841;28;20206;-81
2023/04/12 10:40:19;;;;;;;2.27;1.80;;;;;;;;;;5071673;28;20028;-79
2023/04/12 10:42:45;;;;;;;4.20;1.90;;;;;;;;;;5068058;28;20050;-80
2023/04/12 10:45:24;;;;;;;3.87;2.00;;;;;;;;;;5069990;28;20036;-80
2023/04/12 10:47:55;;;;;;;2.43;2.00;;;;;;;;;;5071733;28;20112;-80
2023/04/12 10:50:24;;;;;;;4.37;1.40;;;;;;;;;;5071659;28;20048;-77
2023/04/12 10:53:17;;;;;;;3.63;0.90;;;;;;;;;;5075159;28;20013;-78
2023/04/12 10:55:44;;;;;;;1.77;1.00;;;;;;;;;;5075536;28;20088;-78
2023/04/12 10:58:30;;;;;;;3.73;1.20;;;;;;;;;;5076320;28;20287;-79
2023/04/12 11:00:56;;;;;;;2.57;1.30;;;;;;;;;;5072076;28;20051;-78
2023/04/12 11:03:23;;;;;;;2.63;1.37;;;;;;;;;;5069871;28;20029;-78
2023/04/12 11:05:59;;;;;;;4.40;2.33;;;;;;;;;;5075905;28;20009;-78
2023/04/12 11:08:26;;;;;;;4.20;1.80;;;;;;;;;;5072631;28;20044;-78
2023/04/12 11:10:52;;;;;;;5.23;2.60;;;;;;;;;;5070980;28;20071;-79
2023/04/12 11:13:19;;;;;;;10.67;2.90;;;;;;;;;;5073944;28;20020;-79
2023/04/12 11:15:45;;;;;;;5.93;2.80;;;;;;;;;;5069771;28;20060;-79
2023/04/12 11:18:11;;;;;;;6.17;3.63;;;;;;;;;;5069104;28;20178;-81
2023/04/12 11:20:41;;;;;;;6.53;3.03;;;;;;;;;;5073839;28;20473;-80
2023/04/12 11:23:09;;;;;;;6.23;3.57;;;;;;;;;;5071991;28;20039;-79
2023/04/12 11:25:36;;;;;;;11.77;4.27;;;;;;;;;;5085921;28;20005;-82
2023/04/12 11:28:02;;;;;;;9.70;3.90;;;;;;;;;;5073734;28;21084;-79
2023/04/12 11:30:28;;;;;;;9.17;3.37;;;;;;;;;;5075143;28;20051;-80
2023/04/12 11:32:57;;;;;;;11.07;3.63;;;;;;;;;;5077086;28;20044;-81
2023/04/12 11:35:26;;;;;;;5.40;2.90;;;;;;;;;;5075819;28;20033;-80
2023/04/12 11:37:56;;;;;;;8.00;2.73;;;;;;;;;;5069894;28;20048;-79
2023/04/12 11:40:24;;;;;;;6.80;2.67;;;;;;;;;;5072726;28;20016;-79
2023/04/12 11:42:51;;;;;;;5.00;1.50;;;;;;;;;;5076285;28;20029;-79
2023/04/12 11:45:20;;;;;;;4.67;1.70;;;;;;;;;;5074437;28;20021;-80
2023/04/12 11:47:47;;;;;;;4.60;1.27;;;;;;;;;;5076609;28;20080;-79
2023/04/12 11:50:13;;;;;;;4.63;1.30;;;;;;;;;;5074746;28;20030;-80
2023/04/12 11:52:39;;;;;;;6.33;1.80;;;;;;;;;;5074286;28;20047;-79
2023/04/12 11:55:07;;;;;;;7.23;1.57;;;;;;;;;;5075878;28;20010;-80
2023/04/12 11:57:34;;;;;;;5.47;1.27;;;;;;;;;;5077020;28;20029;-81
2023/04/12 12:00:05;;;;;;;5.33;1.60;;;;;;;;;;5076905;28;20026;-79
2023/04/12 12:02:32;;;;;;;3.90;1.30;;;;;;;;;;5076696;28;20032;-82
2023/04/12 12:04:59;;;;;;;7.87;1.27;;;;;;;;;;5074249;28;20045;-81
2023/04/12 12:07:25;;;;;;;3.73;1.10;;;;;;;;;;5074912;28;20031;-80
2023/04/12 12:09:51;;;;;;;3.10;1.03;;;;;;;;;;5077458;28;20075;-82
2023/04/12 12:12:17;;;;;;;4.73;1.47;;;;;;;;;;5075172;28;20623;-80
2023/04/12 12:14:46;;;;;;;8.63;1.30;;;;;;;;;;5071978;28;20052;-80
2023/04/12 12:17:14;;;;;;;3.80;1.10;;;;;;;;;;5069734;28;20021;-81
2023/04/12 12:19:41;;;;;;;4.53;1.20;;;;;;;;;;5071490;28;20092;-80
2023/04/12 12:22:10;;;;;;;5.97;1.20;;;;;;;;;;5072879;28;20033;-81
2023/04/12 12:24:36;;;;;;;5.67;1.53;;;;;;;;;;5077207;28;20021;-80
2023/04/12 12:27:03;;;;;;;7.23;1.23;;;;;;;;;;5080288;28;20036;-82
2023/04/12 12:29:38;;;;;;;2.87;1.63;;;;;;;;;;5075539;28;20083;-81
2023/04/12 12:32:11;;;;;;;5.30;1.77;;;;;;;;;;5077898;28;20063;-80
2023/04/12 12:34:37;;;;;;;6.30;1.03;;;;;;;;;;5078357;28;20195;-80
2023/04/12 12:37:07;;;;;;;3.93;0.90;;;;;;;;;;5076418;28;20013;-79
2023/04/12 12:39:33;;;;;;;6.13;1.40;;;;;;;;;;5074487;28;20039;-80
2023/04/12 12:42:01;;;;;;;5.40;1.03;;;;;;;;;;5078848;28;20036;-81
2023/04/12 12:44:27;;;;;;;8.30;1.17;;;;;;;;;;5075666;28;20021;-80
2023/04/12 12:46:58;;;;;;;10.90;1.50;;;;;;;;;;5074842;28;20056;-82
2023/04/12 12:49:24;;;;;;;4.73;1.00;;;;;;;;;;5074582;28;20034;-82
2023/04/12 12:51:50;;;;;;;5.57;1.50;;;;;;;;;;5079685;28;20056;-79
2023/04/12 12:54:17;;;;;;;8.40;1.20;;;;;;;;;;5076753;28;20013;-80
2023/04/12 12:56:43;;;;;;;5.93;1.70;;;;;;;;;;5073649;28;20021;-81
2023/04/12 12:59:09;;;;;;;4.53;1.23;;;;;;;;;;5076967;28;20025;-81
2023/04/12 13:01:35;;;;;;;6.63;1.37;;;;;;;;;;5075088;28;20048;-81
2023/04/12 13:04:01;;;;;;;5.40;1.30;;;;;;;;;;5080653;28;20071;-81
2023/04/12 13:06:27;;;;;;;6.57;1.47;;;;;;;;;;5078862;28;20040;-82
2023/04/12 13:08:54;;;;;;;7.27;1.40;;;;;;;;;;5073537;28;20052;-80
2023/04/12 13:11:22;;;;;;;12.17;2.00;;;;;;;;;;5077983;28;20042;-80
2023/04/12 13:13:50;;;;;;;8.70;1.37;;;;;;;;;;5070122;28;20042;-81
2023/04/12 13:16:16;;;;;;;7.63;1.30;;;;;;;;;;5075324;28;20024;-81
2023/04/12 13:18:43;;;;;;;8.50;1.40;;;;;;;;;;5075888;28;20017;-79
2023/04/12 13:21:09;;;;;;;9.77;1.97;;;;;;;;;;5071732;28;20029;-80
2023/04/12 13:23:35;;;;;;;10.90;1.67;;;;;;;;;;5073685;28;20040;-80
2023/04/12 13:26:01;;;;;;;9.07;2.03;;;;;;;;;;5075254;28;20132;-80
2023/04/12 13:28:30;;;;;;;9.43;1.63;;;;;;;;;;5073373;28;20013;-80
2023/04/12 13:30:56;;;;;;;6.40;1.43;;;;;;;;;;5076109;28;20040;-81
2023/04/12 13:33:22;;;;;;;6.13;1.53;;;;;;;;;;5079560;28;20076;-79
2023/04/12 13:35:48;;;;;;;8.80;2.50;;;;;;;;;;5078700;28;20032;-80
2023/04/12 13:38:14;;;;;;;10.83;2.17;;;;;;;;;;5078849;28;20028;-80
2023/04/12 13:40:42;;;;;;;9.67;1.30;;;;;;;;;;5075391;28;20020;-80
2023/04/12 13:43:08;;;;;;;10.20;1.60;;;;;;;;;;5076655;28;20031;-80
2023/04/12 13:45:34;;;;;;;13.50;2.27;;;;;;;;;;5075569;28;20017;-79
2023/04/12 13:48:01;;;;;;;7.73;2.13;;;;;;;;;;5079578;28;20048;-79
2023/04/12 13:50:27;;;;;;;9.47;1.60;;;;;;;;;;5072665;28;20048;-80
2023/04/12 13:52:53;;;;;;;5.73;1.50;;;;;;;;;;5074751;28;20108;-79
2023/04/12 13:55:19;;;;;;;7.70;1.90;;;;;;;;;;5070661;28;20043;-81
2023/04/12 13:57:45;;;;;;;8.27;1.90;;;;;;;;;;5075762;28;20012;-79
2023/04/12 14:00:12;;;;;;;9.40;1.90;;;;;;;;;;5073594;28;20137;-79
2023/04/12 14:02:38;;;;;;;10.37;2.93;;;;;;;;;;5072920;28;20035;-79
2023/04/12 14:05:11;;;;;;;8.73;1.87;;;;;;;;;;5076378;28;20012;-80
2023/04/12 14:07:37;;;;;;;9.40;1.87;;;;;;;;;;5072910;28;20021;-79
2023/04/12 14:10:03;;;;;;;11.87;2.10;;;;;;;;;;5077641;28;20362;-80
2023/04/12 14:12:32;;;;;;;11.40;2.20;;;;;;;;;;5074948;28;20096;-79
2023/04/12 14:14:58;;;;;;;9.43;2.00;;;;;;;;;;5073989;28;20029;-80
2023/04/12 14:17:24;;;;;;;10.37;1.93;;;;;;;;;;5076288;28;20013;-80
2023/04/12 14:19:53;;;;;;;15.10;1.83;;;;;;;;;;5072570;28;20033;-80
2023/04/12 14:22:19;;;;;;;13.47;2.30;;;;;;;;;;5070763;28;20029;-80
2023/04/12 14:24:45;;;;;;;14.30;2.43;;;;;;;;;;5071645;28;20021;-80
2023/04/12 14:27:11;;;;;;;10.53;2.57;;;;;;;;;;5076046;28;20025;-80
2023/04/12 14:29:40;;;;;;;7.63;1.77;;;;;;;;;;5069132;28;20043;-80
2023/04/12 14:32:15;;;;;;;11.80;1.80;;;;;;;;;;5071721;28;20020;-80
2023/04/12 14:34:45;;;;;;;8.30;1.90;;;;;;;;;;5072609;28;20079;-82
2023/04/12 14:37:11;;;;;;;9.63;1.83;;;;;;;;;;5073409;28;20009;-80
2023/04/12 14:39:37;;;;;;;6.33;1.47;;;;;;;;;;5073559;28;20092;-79
2023/04/12 14:42:03;;;;;;;6.77;1.60;;;;;;;;;;5074682;28;20017;-80
2023/04/12 14:44:30;;;;;;;9.63;1.87;;;;;;;;;;5073711;28;20028;-80
2023/04/12 14:46:56;;;;;;;8.20;1.77;;;;;;;;;;5070962;28;20032;-80
2023/04/12 14:49:22;;;;;;;7.03;1.73;;;;;;;;;;5071857;28;20028;-81